Time;durP1;ratioP1;P1;durP2;ratioP2;P2;SDS_P1;SDS_P2;PMS_P1;PMS_P2;Temp;Humidity;BMP_temperature;BMP_pressure;BME280_temperature;BME280_humidity;BME280_pressure;Samples;Min_cycle;Max_cycle;Signal;HPM_P1;HPM_P2
2022/02/05 00:00:37;;;;;;;12.23;2.17;;;4.60;99.90;;;;;;4999041;28;20042;-90
2022/02/05 00:03:14;;;;;;;7.85;1.65;;;4.70;99.90;;;;;;4999530;28;20044;-89
2022/02/05 00:05:47;;;;;;;9.20;1.85;;;4.70;99.90;;;;;;5009812;28;20053;-89
2022/02/05 00:43:07;;;;;;;10.90;2.15;;;4.60;99.90;;;;;;5014406;28;20041;-89
2022/02/05 00:45:34;;;;;;;7.22;2.08;;;4.50;99.90;;;;;;5013759;28;20076;-90
2022/02/05 00:48:02;;;;;;;7.93;1.75;;;4.50;99.90;;;;;;5013253;28;20495;-90
2022/02/05 00:50:29;;;;;;;9.40;2.25;;;4.50;99.90;;;;;;5013542;28;20034;-87
2022/02/05 00:53:00;;;;;;;8.98;2.42;;;4.50;99.90;;;;;;4994946;28;20547;-89
2022/02/05 00:55:30;;;;;;;8.30;1.85;;;4.50;99.90;;;;;;5012201;28;20632;-90
2022/02/05 00:58:02;;;;;;;6.35;2.25;;;4.50;99.90;;;;;;4997719;28;20119;-89
2022/02/05 01:00:28;;;;;;;9.63;2.47;;;4.50;99.90;;;;;;5013913;28;20091;-90
2022/02/05 01:02:53;;;;;;;7.40;1.67;;;4.50;99.90;;;;;;4997261;28;20037;-90
2022/02/05 01:05:22;;;;;;;8.75;2.00;;;4.50;99.90;;;;;;4996648;28;20534;-88
2022/02/05 01:07:48;;;;;;;10.20;2.97;;;4.50;99.90;;;;;;4997317;28;20048;-90
2022/02/05 01:10:14;;;;;;;9.70;2.35;;;4.40;99.90;;;;;;5013861;28;20088;-89
2022/02/05 01:12:45;;;;;;;6.88;1.98;;;4.30;99.90;;;;;;5013790;28;20053;-90
2022/02/05 01:15:12;;;;;;;7.20;2.40;;;4.30;99.90;;;;;;5014171;28;20041;-91
2022/02/05 01:17:44;;;;;;;7.55;2.47;;;4.20;99.90;;;;;;5014000;28;20041;-86
2022/02/05 01:22:39;;;;;;;8.30;2.58;;;4.20;99.90;;;;;;5014814;28;20121;-90
2022/02/05 01:25:05;;;;;;;9.25;2.10;;;4.20;99.90;;;;;;5014367;28;20369;-88
2022/02/05 01:30:43;;;;;;;5.88;2.17;;;4.10;99.90;;;;;;5016538;28;20033;-90
2022/02/05 01:33:09;;;;;;;15.00;3.25;;;4.10;99.90;;;;;;5013954;28;20029;-89
2022/02/05 02:05:31;;;;;;;7.10;2.15;;;4.10;99.90;;;;;;5021140;28;20045;-88
2022/02/05 02:10:52;;;;;;;9.13;1.85;;;4.10;99.90;;;;;;5018118;28;20084;-90
2022/02/05 02:15:53;;;;;;;8.73;1.88;;;4.10;99.90;;;;;;5016444;28;20484;-91
2022/02/05 02:21:05;;;;;;;12.65;2.20;;;4.10;99.90;;;;;;5015676;28;20178;-90
2022/02/05 02:28:39;;;;;;;7.28;1.63;;;4.10;99.90;;;;;;5016115;28;20026;-90
2022/02/05 02:31:09;;;;;;;14.82;2.22;;;4.10;99.90;;;;;;5014688;28;20030;-90
2022/02/05 02:33:41;;;;;;;10.65;1.98;;;4.10;99.90;;;;;;5014780;28;20495;-89
2022/02/05 02:36:12;;;;;;;8.32;1.42;;;4.00;99.90;;;;;;5014461;28;20125;-89
2022/02/05 02:38:46;;;;;;;9.55;1.77;;;4.10;99.90;;;;;;5014153;28;20064;-88
2022/02/05 02:41:18;;;;;;;;;;;4.00;99.90;;;;;;5014073;28;20411;-89
2022/02/05 02:43:44;;;;;;;9.38;2.05;;;3.90;99.90;;;;;;5013812;28;19913;-88
2022/02/05 02:46:09;;;;;;;11.45;1.90;;;3.90;99.90;;;;;;4997199;28;20057;-87
2022/02/05 02:48:36;;;;;;;6.65;1.85;;;3.90;99.90;;;;;;5015129;28;20062;-88
2022/02/05 02:59:23;;;;;;;8.45;1.65;;;4.00;99.90;;;;;;5015168;28;20097;-88
2022/02/05 03:01:56;;;;;;;9.10;2.33;;;4.00;99.90;;;;;;5014300;28;20038;-88
2022/02/05 03:04:22;;;;;;;8.90;1.70;;;4.00;99.90;;;;;;5013867;28;20041;-88
2022/02/05 03:06:48;;;;;;;12.02;2.72;;;4.00;99.90;;;;;;4997824;28;20399;-88
2022/02/05 03:09:13;;;;;;;10.40;2.20;;;4.00;99.90;;;;;;5017197;28;20030;-88
2022/02/05 03:11:39;;;;;;;9.35;1.70;;;4.00;99.90;;;;;;5019889;28;20038;-89
2022/02/05 03:14:05;;;;;;;13.95;1.80;;;4.00;99.90;;;;;;5029952;28;20052;-87
2022/02/05 03:16:35;;;;;;;10.48;2.42;;;4.10;99.90;;;;;;5034681;28;20037;-88
2022/02/05 03:19:14;;;;;;;9.13;2.38;;;4.10;99.90;;;;;;5037094;28;20022;-87
2022/02/05 03:21:40;;;;;;;9.63;2.25;;;4.10;99.90;;;;;;5035685;28;20186;-87
2022/02/05 03:24:06;;;;;;;9.93;1.73;;;4.10;99.90;;;;;;5029473;28;20014;-88
2022/02/05 03:26:34;;;;;;;9.93;1.30;;;4.10;99.90;;;;;;5037476;28;20317;-88
2022/02/05 03:29:00;;;;;;;17.08;2.20;;;4.10;99.90;;;;;;5036729;28;20053;-87
2022/02/05 03:31:26;;;;;;;9.93;2.17;;;4.20;99.90;;;;;;5036506;28;20026;-88
2022/02/05 03:33:52;;;;;;;9.70;1.83;;;4.20;99.90;;;;;;5036195;28;20041;-86
2022/02/05 03:36:18;;;;;;;10.77;1.90;;;4.20;99.90;;;;;;5035941;28;20097;-89
2022/02/05 03:38:43;;;;;;;9.35;1.42;;;4.20;99.90;;;;;;5034710;28;20029;-87
2022/02/05 03:41:09;;;;;;;12.95;2.28;;;4.20;99.90;;;;;;5026899;28;20049;-87
2022/02/05 03:43:34;;;;;;;10.40;2.63;;;4.20;99.90;;;;;;5014498;28;20129;-89
2022/02/05 03:46:00;;;;;;;18.52;3.03;;;4.20;99.90;;;;;;5014235;28;20062;-87
2022/02/05 03:48:25;;;;;;;13.48;2.10;;;4.20;99.90;;;;;;5015654;28;20049;-89
2022/02/05 03:50:51;;;;;;;13.73;1.85;;;4.20;99.90;;;;;;5015369;28;20152;-89
2022/02/05 03:53:17;;;;;;;11.20;1.80;;;4.20;99.90;;;;;;5015290;28;20033;-90
2022/02/05 03:55:46;;;;;;;15.57;2.10;;;4.20;99.90;;;;;;5015625;28;20106;-88
2022/02/05 03:58:12;;;;;;;11.18;1.98;;;4.30;99.90;;;;;;4998125;28;20033;-87
2022/02/05 04:00:38;;;;;;;9.13;2.38;;;4.30;99.90;;;;;;5015697;28;20042;-89
2022/02/05 04:03:04;;;;;;;11.60;2.35;;;4.20;99.90;;;;;;5014756;28;20133;-89
2022/02/05 04:05:31;;;;;;;8.15;1.98;;;4.30;99.90;;;;;;5018098;28;20416;-89
2022/02/05 04:07:57;;;;;;;12.70;2.20;;;4.30;99.90;;;;;;5017351;28;20037;-91
2022/02/05 04:10:29;;;;;;;10.02;1.90;;;4.30;99.90;;;;;;5016766;28;20104;-88
2022/02/05 04:18:24;;;;;;;9.77;1.88;;;4.30;99.90;;;;;;5017992;28;20060;-88
2022/02/05 04:20:50;;;;;;;11.32;1.92;;;4.20;99.90;;;;;;5015848;28;20041;-90
2022/02/05 04:23:16;;;;;;;10.30;1.83;;;4.30;99.90;;;;;;5017032;28;20439;-89
2022/02/05 04:25:42;;;;;;;13.57;1.70;;;4.20;99.90;;;;;;5016120;28;20038;-90
2022/02/05 04:28:08;;;;;;;7.55;1.98;;;4.10;99.90;;;;;;5016695;28;20022;-89
2022/02/05 04:30:34;;;;;;;14.85;2.00;;;4.10;99.90;;;;;;5017469;28;20176;-87
2022/02/05 04:33:00;;;;;;;11.00;1.67;;;4.20;99.90;;;;;;5016002;28;20741;-89
2022/02/05 04:35:26;;;;;;;8.02;2.10;;;4.10;99.90;;;;;;5016012;28;20043;-87
2022/02/05 04:37:54;;;;;;;6.65;1.60;;;4.10;99.90;;;;;;5015861;28;20403;-87
2022/02/05 04:40:42;;;;;;;10.18;2.42;;;4.20;99.90;;;;;;5015785;28;20369;-89
2022/02/05 04:43:22;;;;;;;11.45;1.88;;;4.10;99.90;;;;;;5016162;28;20399;-88
2022/02/05 04:46:48;;;;;;;13.27;2.00;;;4.10;99.90;;;;;;5015782;28;20582;-88
2022/02/05 04:56:27;;;;;;;11.10;1.85;;;4.00;99.90;;;;;;5016880;28;20038;-88
2022/02/05 04:59:22;;;;;;;15.25;2.30;;;4.00;99.90;;;;;;5015828;28;20026;-89
2022/02/05 05:20:20;;;;;;;12.85;1.95;;;4.30;99.90;;;;;;5016292;28;20075;-88
2022/02/05 05:22:45;;;;;;;8.25;1.88;;;4.40;99.90;;;;;;5015011;28;20119;-89
2022/02/05 05:25:11;;;;;;;7.95;1.70;;;4.40;99.90;;;;;;4998558;28;20496;-86
2022/02/05 05:27:37;;;;;;;8.63;1.63;;;4.40;99.90;;;;;;5015247;28;20041;-88
2022/02/05 05:30:05;;;;;;;9.77;2.13;;;4.40;99.90;;;;;;4998039;28;20022;-88
2022/02/05 05:32:31;;;;;;;10.25;2.08;;;4.50;99.90;;;;;;5014620;28;20447;-87
2022/02/05 05:34:56;;;;;;;6.20;1.80;;;4.40;99.90;;;;;;5014349;28;20038;-87
2022/02/05 05:37:22;;;;;;;8.25;1.92;;;4.50;99.90;;;;;;4998088;28;20494;-86
2022/02/05 05:39:49;;;;;;;8.07;2.22;;;4.50;99.90;;;;;;5014533;28;20097;-88
2022/02/05 05:42:22;;;;;;;14.02;1.67;;;4.50;99.90;;;;;;5014265;28;20073;-88
2022/02/05 05:47:37;;;;;;;8.60;1.48;;;4.40;99.90;;;;;;5015293;28;20065;-88
2022/02/05 05:50:34;;;;;;;10.48;1.77;;;4.30;99.90;;;;;;5015855;28;20030;-88
2022/02/05 05:52:55;;;;;;;8.77;2.17;;;4.20;99.90;;;;;;5014872;28;20527;-88
2022/02/05 05:55:21;;;;;;;10.23;2.35;;;4.10;99.90;;;;;;5013761;28;20038;-88
2022/02/05 05:57:46;;;;;;;15.93;1.88;;;4.00;99.90;;;;;;5014952;28;20034;-89
2022/02/05 06:00:13;;;;;;;9.73;2.45;;;4.00;99.90;;;;;;5013900;28;20037;-90
2022/02/05 06:02:39;;;;;;;9.70;1.70;;;4.00;99.90;;;;;;5014302;28;20042;-90
2022/02/05 06:05:05;;;;;;;10.10;1.85;;;4.00;99.90;;;;;;5013818;28;20022;-87
2022/02/05 06:07:31;;;;;;;5.50;1.30;;;3.90;99.90;;;;;;5014251;28;20412;-87
2022/02/05 06:09:56;;;;;;;7.88;2.05;;;3.90;99.90;;;;;;5015388;28;20041;-88
2022/02/05 06:12:22;;;;;;;10.38;1.80;;;3.90;99.90;;;;;;5013823;28;20116;-87
2022/02/05 06:14:48;;;;;;;9.95;1.77;;;4.00;99.90;;;;;;5013973;28;20480;-89
2022/02/05 06:17:21;;;;;;;9.07;1.63;;;4.00;99.90;;;;;;5013996;28;20042;-90
2022/02/05 06:19:46;;;;;;;9.35;1.60;;;4.00;99.90;;;;;;5014074;28;20559;-89
2022/02/05 06:22:13;;;;;;;7.40;1.77;;;3.90;99.90;;;;;;5014544;28;20117;-88
2022/02/05 06:24:39;;;;;;;8.18;1.65;;;3.90;99.90;;;;;;5014040;28;20025;-89
2022/02/05 06:27:05;;;;;;;15.75;2.72;;;3.90;99.90;;;;;;4997289;28;20121;-88
2022/02/05 06:29:31;;;;;;;11.40;2.13;;;3.90;99.90;;;;;;5013886;28;20030;-88
2022/02/05 06:31:57;;;;;;;10.50;1.95;;;4.00;99.90;;;;;;5013552;28;20376;-88
2022/02/05 06:34:23;;;;;;;10.30;2.42;;;4.10;99.90;;;;;;4998017;28;20030;-89
2022/02/05 06:36:48;;;;;;;9.45;2.15;;;4.10;99.90;;;;;;5013783;28;20518;-89
2022/02/05 06:39:14;;;;;;;12.77;2.58;;;4.10;99.90;;;;;;5015019;28;20029;-87
2022/02/05 06:41:40;;;;;;;13.80;2.42;;;4.10;99.90;;;;;;5016717;28;20058;-87
2022/02/05 06:44:06;;;;;;;10.32;2.45;;;4.10;99.90;;;;;;5019706;28;20030;-88
2022/02/05 06:46:31;;;;;;;13.55;2.17;;;4.20;99.90;;;;;;5020176;28;20057;-85
2022/02/05 06:48:57;;;;;;;8.10;2.05;;;4.20;99.90;;;;;;5020037;28;20122;-86
2022/02/05 06:51:22;;;;;;;10.35;2.38;;;4.20;99.90;;;;;;5015789;28;20092;-87
2022/02/05 06:53:48;;;;;;;8.77;2.10;;;4.20;99.90;;;;;;5014615;28;20030;-89
2022/02/05 06:56:14;;;;;;;16.92;3.13;;;4.20;99.90;;;;;;5015906;28;20330;-87
2022/02/05 06:58:39;;;;;;;13.20;2.53;;;4.20;99.90;;;;;;5017981;28;20061;-86
2022/02/05 07:01:05;;;;;;;12.07;2.53;;;4.20;99.90;;;;;;5017780;28;20541;-88
2022/02/05 07:03:30;;;;;;;15.13;2.58;;;4.10;99.90;;;;;;4998764;28;20029;-88
2022/02/05 07:05:56;;;;;;;13.57;3.13;;;4.10;99.90;;;;;;4999054;28;20038;-87
2022/02/05 07:08:22;;;;;;;11.00;2.83;;;4.10;99.90;;;;;;4997216;28;20385;-88
2022/02/05 07:10:50;;;;;;;12.35;2.50;;;4.10;99.90;;;;;;5012708;28;20073;-90
2022/02/05 07:13:17;;;;;;;12.05;2.40;;;4.10;99.90;;;;;;5013404;28;20033;-90
2022/02/05 07:15:53;;;;;;;8.90;2.47;;;4.00;99.90;;;;;;5013918;28;20096;-88
2022/02/05 07:20:51;;;;;;;16.05;3.60;;;4.10;99.90;;;;;;5014648;28;20045;-88
2022/02/05 07:31:18;;;;;;;16.58;2.70;;;4.20;99.90;;;;;;5014758;28;20037;-88
2022/02/05 07:33:43;;;;;;;15.43;2.55;;;4.20;99.90;;;;;;5016424;28;20037;-90
2022/02/05 07:36:11;;;;;;;8.68;2.45;;;4.20;99.90;;;;;;5000636;28;20042;-90
2022/02/05 07:38:37;;;;;;;12.25;3.38;;;4.20;99.90;;;;;;5017757;28;20109;-91
2022/02/05 07:41:03;;;;;;;12.68;3.47;;;4.10;99.90;;;;;;5002217;28;20076;-90
2022/02/05 07:43:34;;;;;;;14.63;3.58;;;4.20;99.90;;;;;;5017887;28;20038;-90
2022/02/05 07:46:00;;;;;;;15.43;3.35;;;4.20;99.90;;;;;;5016582;28;20050;-89
2022/02/05 07:48:26;;;;;;;13.23;2.88;;;4.20;99.90;;;;;;5016566;28;20036;-92
2022/02/05 07:50:52;;;;;;;9.57;2.80;;;4.20;99.90;;;;;;5016448;28;20038;-87
2022/02/05 07:53:18;;;;;;;18.42;3.55;;;4.20;99.90;;;;;;4999851;28;20121;-88
2022/02/05 07:55:45;;;;;;;13.40;3.33;;;4.10;99.90;;;;;;5016148;28;20065;-87
2022/02/05 07:58:11;;;;;;;9.70;2.72;;;4.10;99.90;;;;;;4999837;28;20511;-88
2022/02/05 08:00:36;;;;;;;13.35;3.25;;;4.10;99.90;;;;;;5016500;28;20030;-88
2022/02/05 08:03:02;;;;;;;13.20;2.50;;;4.10;99.90;;;;;;5016644;28;20373;-88
2022/02/05 08:05:27;;;;;;;12.05;2.92;;;4.10;99.90;;;;;;5017614;28;20030;-87
2022/02/05 08:07:53;;;;;;;12.88;2.47;;;4.10;99.90;;;;;;5017211;28;20037;-88
2022/02/05 08:10:24;;;;;;;9.57;2.80;;;4.10;99.90;;;;;;5016993;28;20037;-89
2022/02/05 08:12:55;;;;;;;15.43;3.30;;;4.10;99.90;;;;;;5017766;28;20456;-87
2022/02/05 08:15:23;;;;;;;8.88;2.83;;;4.10;99.90;;;;;;5015965;28;20034;-88
2022/02/05 08:17:49;;;;;;;8.30;2.53;;;4.10;99.90;;;;;;5016755;28;20047;-89
2022/02/05 08:20:15;;;;;;;14.80;3.90;;;4.10;99.90;;;;;;5018259;28;20030;-90
2022/02/05 08:22:41;;;;;;;11.23;3.30;;;4.10;99.90;;;;;;5015745;28;20517;-88
2022/02/05 08:25:07;;;;;;;11.65;3.03;;;4.10;99.90;;;;;;5015561;28;20029;-87
2022/02/05 08:27:34;;;;;;;11.50;3.67;;;4.10;99.90;;;;;;5016302;28;20040;-87
2022/02/05 08:30:05;;;;;;;14.30;4.65;;;4.10;99.90;;;;;;4999559;28;20222;-89
2022/02/05 08:32:31;;;;;;;17.05;4.18;;;4.10;99.90;;;;;;5017732;28;20526;-89
2022/02/05 08:34:59;;;;;;;12.77;3.97;;;4.20;99.90;;;;;;5017563;28;20030;-90
2022/02/05 08:37:30;;;;;;;8.75;3.42;;;4.20;99.90;;;;;;5015174;28;20124;-89
2022/02/05 08:39:56;;;;;;;10.98;3.92;;;4.30;99.90;;;;;;5013595;28;20033;-89
2022/02/05 08:42:22;;;;;;;10.35;3.40;;;4.30;99.90;;;;;;5030638;23;20145;-89
2022/02/05 08:44:48;;;;;;;15.38;4.90;;;4.30;99.90;;;;;;5006428;28;20053;-89
2022/02/05 08:47:14;;;;;;;8.48;3.60;;;4.30;99.90;;;;;;4999451;28;20128;-89
2022/02/05 08:49:39;;;;;;;18.38;4.32;;;4.30;99.90;;;;;;4997944;28;20722;-88
2022/02/05 08:52:08;;;;;;;10.35;4.28;;;4.40;99.90;;;;;;5001150;28;20121;-89
2022/02/05 08:54:35;;;;;;;13.63;4.07;;;4.60;99.90;;;;;;5000989;28;20030;-90
2022/02/05 08:57:02;;;;;;;11.40;4.40;;;4.80;99.90;;;;;;4999454;28;20108;-88
2022/02/05 08:59:32;;;;;;;10.30;4.40;;;5.00;99.90;;;;;;5017414;28;20093;-87
2022/02/05 09:02:07;;;;;;;13.32;4.80;;;5.00;99.90;;;;;;4985206;28;20808;-86
2022/02/05 09:04:47;;;;;;;11.50;4.10;;;5.20;99.90;;;;;;4990978;28;20042;-86
2022/02/05 09:07:13;;;;;;;10.48;4.00;;;5.20;99.90;;;;;;5003707;28;20038;-91
2022/02/05 09:12:32;;;;;;;18.65;5.18;;;5.40;99.90;;;;;;5022096;28;20053;-92
2022/02/05 09:14:58;;;;;;;14.38;4.50;;;5.50;99.90;;;;;;4998268;28;20121;-90
2022/02/05 09:17:24;;;;;;;18.58;4.53;;;5.70;99.90;;;;;;4980032;28;20680;-91
2022/02/05 09:19:50;;;;;;;12.48;4.55;;;5.70;99.90;;;;;;4978635;28;20117;-90
2022/02/05 09:22:16;;;;;;;13.70;4.55;;;5.80;99.90;;;;;;4978740;28;20169;-91
2022/02/05 09:24:42;;;;;;;11.15;4.45;;;6.00;99.90;;;;;;4977855;28;20089;-90
2022/02/05 09:27:12;;;;;;;14.85;4.75;;;6.30;99.90;;;;;;4979308;28;20869;-88
2022/02/05 09:30:00;;;;;;;13.57;4.57;;;7.30;99.90;;;;;;4984463;28;20034;-90
2022/02/05 09:32:24;;;;;;;11.60;4.50;;;7.50;99.90;;;;;;5016401;28;20026;-91
2022/02/05 09:34:50;;;;;;;11.50;3.17;;;7.70;99.90;;;;;;5000102;28;20030;-90
2022/02/05 09:37:16;;;;;;;9.93;3.03;;;8.20;99.90;;;;;;5017093;28;20041;-90
2022/02/05 09:39:43;;;;;;;11.23;2.78;;;8.80;99.90;;;;;;5004038;28;20093;-90
2022/02/05 09:42:11;;;;;;;11.73;3.30;;;9.50;99.90;;;;;;5003832;28;20054;-87
2022/02/05 09:44:45;;;;;;;12.07;3.28;;;10.20;99.90;;;;;;5008924;28;20040;-87
2022/02/05 09:47:14;;;;;;;10.07;3.03;;;10.50;99.90;;;;;;5024125;28;20116;-88
2022/02/05 09:49:43;;;;;;;6.80;2.78;;;11.00;99.90;;;;;;5006007;28;20030;-87
2022/02/05 09:52:13;;;;;;;11.82;2.72;;;11.40;99.90;;;;;;4991457;28;20128;-87
2022/02/05 09:54:42;;;;;;;13.98;3.08;;;10.90;99.90;;;;;;5005909;28;20096;-88
2022/02/05 09:57:11;;;;;;;10.45;2.63;;;10.40;99.90;;;;;;5007681;28;20072;-91
2022/02/05 09:59:41;;;;;;;10.60;2.38;;;10.40;99.90;;;;;;4986806;28;20153;-88
2022/02/05 10:02:23;;;;;;;11.00;2.63;;;10.60;99.90;;;;;;5022691;28;20050;-87
2022/02/05 10:05:04;;;;;;;8.65;2.33;;;10.80;99.90;;;;;;5025149;28;20030;-88
2022/02/05 10:07:30;;;;;;;8.80;2.63;;;11.50;99.90;;;;;;4999104;28;20056;-90
2022/02/05 10:09:58;;;;;;;11.52;2.85;;;12.10;99.90;;;;;;4997558;28;20165;-90
2022/02/05 10:12:24;;;;;;;8.88;2.75;;;12.30;99.90;;;;;;4997523;28;20045;-90
2022/02/05 10:14:54;;;;;;;9.32;2.90;;;12.80;99.90;;;;;;4996357;28;20041;-91
2022/02/05 10:17:21;;;;;;;11.40;3.75;;;13.00;99.90;;;;;;4995541;28;20061;-90
2022/02/05 10:19:52;;;;;;;13.43;3.40;;;13.10;99.90;;;;;;5012657;28;20030;-91
2022/02/05 10:22:20;;;;;;;17.00;3.22;;;12.90;99.90;;;;;;5011452;28;20042;-88
2022/02/05 10:24:51;;;;;;;14.65;2.97;;;12.80;99.90;;;;;;4999259;28;20025;-89
2022/02/05 10:27:42;;;;;;;11.65;2.92;;;12.90;99.90;;;;;;5000238;28;20042;-92
2022/02/05 10:30:27;;;;;;;8.75;2.22;;;13.10;99.90;;;;;;5005897;28;20495;-91
2022/02/05 10:36:13;;;;;;;9.93;2.50;;;12.30;99.90;;;;;;5018275;28;20570;-92
2022/02/05 10:44:32;;;;;;;10.07;2.25;;;11.70;99.90;;;;;;5025478;28;20096;-90
2022/02/05 10:46:59;;;;;;;11.88;2.30;;;10.90;99.90;;;;;;5021149;23;20061;-93
2022/02/05 10:49:50;;;;;;;6.57;1.63;;;11.10;99.90;;;;;;4986109;28;20041;-92
2022/02/05 10:52:30;;;;;;;8.30;2.00;;;10.50;99.90;;;;;;5007364;28;20033;-89
2022/02/05 10:55:07;;;;;;;10.65;2.80;;;10.20;99.90;;;;;;4999141;28;20112;-90
2022/02/05 10:57:43;;;;;;;14.38;2.40;;;10.60;99.90;;;;;;4967359;28;20488;-92
2022/02/05 11:05:43;;;;;;;11.02;2.83;;;10.30;99.90;;;;;;5005886;28;20045;-88
2022/02/05 11:08:10;;;;;;;7.72;2.13;;;10.60;99.90;;;;;;4989177;28;20069;-90
2022/02/05 11:18:57;;;;;;;11.13;2.55;;;10.30;99.90;;;;;;5014560;23;20050;-91
2022/02/05 11:21:25;;;;;;;12.82;2.70;;;9.90;99.90;;;;;;5004795;28;20500;-90
2022/02/05 11:24:05;;;;;;;9.65;2.25;;;9.50;99.90;;;;;;5023203;28;20473;-90
2022/02/05 11:26:32;;;;;;;9.80;2.30;;;9.10;99.90;;;;;;4994824;28;20038;-91
2022/02/05 11:29:04;;;;;;;9.05;2.35;;;8.80;99.90;;;;;;5013911;28;20061;-89
2022/02/05 11:31:39;;;;;;;15.73;2.60;;;8.70;99.90;;;;;;5009549;28;20046;-91
2022/02/05 11:34:27;;;;;;;12.05;2.30;;;9.00;99.90;;;;;;5006742;28;20150;-88
2022/02/05 11:37:07;;;;;;;12.05;2.33;;;9.70;99.90;;;;;;5027504;28;20069;-88
2022/02/05 11:39:53;;;;;;;10.63;3.00;;;10.10;99.90;;;;;;5029717;28;20033;-87
2022/02/05 11:42:36;;;;;;;10.18;2.58;;;9.80;99.90;;;;;;5020996;28;20029;-92
2022/02/05 11:45:24;;;;;;;10.07;2.00;;;9.30;99.90;;;;;;5021932;28;20033;-88
2022/02/05 11:47:50;;;;;;;9.52;2.35;;;8.80;99.90;;;;;;5020911;28;20041;-88
2022/02/05 11:50:26;;;;;;;13.73;2.03;;;8.60;99.90;;;;;;5011028;28;20019;-89
2022/02/05 11:52:52;;;;;;;8.77;2.03;;;8.40;99.90;;;;;;5005049;28;20027;-91
2022/02/05 11:55:33;;;;;;;10.68;2.50;;;8.50;99.90;;;;;;5004989;28;20034;-93
2022/02/05 11:58:08;;;;;;;7.18;1.88;;;9.10;99.90;;;;;;5003798;28;20010;-91
2022/02/05 12:00:39;;;;;;;7.10;2.20;;;10.10;99.90;;;;;;5004074;28;20023;-92
2022/02/05 12:03:35;;;;;;;20.85;2.58;;;10.20;99.90;;;;;;5004439;28;20030;-91
2022/02/05 12:06:19;;;;;;;10.43;2.10;;;10.80;99.90;;;;;;5001220;28;20026;-92
2022/02/05 12:08:47;;;;;;;8.88;3.05;;;11.10;99.90;;;;;;5001805;28;20038;-92
2022/02/05 12:11:46;;;;;;;13.35;2.33;;;11.00;99.90;;;;;;5001627;28;20019;-92
2022/02/05 12:14:15;;;;;;;11.00;2.50;;;11.10;99.90;;;;;;4944055;28;20034;-95
2022/02/05 12:17:27;;;;;;;8.43;2.10;;;11.30;99.90;;;;;;5000678;28;20070;-91
2022/02/05 12:20:22;;;;;;;12.18;2.17;;;11.60;99.90;;;;;;4998432;28;20050;-91
2022/02/05 12:25:31;;;;;;;12.13;2.65;;;12.70;99.90;;;;;;5001052;28;20441;-92
2022/02/05 12:27:57;;;;;;;11.27;2.10;;;12.90;99.90;;;;;;4982256;28;20034;-90
2022/02/05 12:30:31;;;;;;;9.85;2.33;;;12.50;99.90;;;;;;5001499;28;20049;-90
2022/02/05 12:32:57;;;;;;;8.35;2.33;;;12.20;99.90;;;;;;5000409;28;20089;-88
2022/02/05 12:35:23;;;;;;;8.57;2.35;;;12.20;99.90;;;;;;4981571;28;20022;-91
2022/02/05 12:37:49;;;;;;;9.77;2.38;;;12.00;99.90;;;;;;4981060;28;20034;-88
2022/02/05 12:40:15;;;;;;;10.15;1.98;;;12.40;99.90;;;;;;4966633;28;20037;-90
2022/02/05 12:43:01;;;;;;;9.45;2.13;;;13.00;99.90;;;;;;4971013;28;20467;-95
2022/02/05 12:45:46;;;;;;;8.73;2.05;;;12.70;99.90;;;;;;4985514;28;20034;-92
2022/02/05 12:48:13;;;;;;;6.43;1.73;;;11.80;99.90;;;;;;4984259;28;20042;-92
2022/02/05 12:50:41;;;;;;;8.88;1.88;;;11.20;99.90;;;;;;4981694;28;20031;-90
2022/02/05 12:53:07;;;;;;;5.95;1.35;;;11.30;99.90;;;;;;4979568;28;20042;-91
2022/02/05 12:55:43;;;;;;;7.80;1.60;;;11.70;99.90;;;;;;4999021;28;20049;-92
2022/02/05 12:58:08;;;;;;;9.82;1.88;;;11.80;99.90;;;;;;4980666;28;20031;-91
2022/02/05 13:00:34;;;;;;;12.30;2.30;;;11.70;99.90;;;;;;4981065;28;20108;-92
2022/02/05 13:03:00;;;;;;;7.75;1.60;;;11.50;99.90;;;;;;4980605;28;20039;-91
2022/02/05 13:05:33;;;;;;;10.00;2.15;;;11.70;99.90;;;;;;4980286;28;20038;-91
2022/02/05 13:07:58;;;;;;;;;;;12.10;99.90;;;;;;4981076;28;20066;-92
2022/02/05 13:10:25;;;;;;;7.22;1.77;;;12.50;99.90;;;;;;4984321;28;19916;-90
2022/02/05 13:12:56;;;;;;;7.10;1.67;;;12.30;99.90;;;;;;4988264;28;20041;-92
2022/02/05 13:15:25;;;;;;;9.07;2.88;;;11.50;99.90;;;;;;5003046;28;20042;-91
2022/02/05 13:28:49;;;;;;;8.15;2.40;;;9.20;99.90;;;;;;4995584;28;20034;-87
2022/02/05 13:36:45;;;;;;;6.05;1.83;;;10.10;99.90;;;;;;4996320;28;20034;-90
2022/02/05 13:39:37;;;;;;;10.07;2.10;;;11.00;99.90;;;;;;4980146;28;20034;-91
2022/02/05 13:45:09;;;;;;;8.77;1.73;;;12.50;99.90;;;;;;4994723;28;20696;-89
2022/02/05 13:47:50;;;;;;;6.93;1.77;;;12.70;99.90;;;;;;4976657;28;20034;-88
2022/02/05 13:50:27;;;;;;;5.95;1.50;;;12.30;99.90;;;;;;4977256;28;20598;-88
2022/02/05 13:52:55;;;;;;;10.05;2.15;;;12.60;99.90;;;;;;4978406;28;20550;-89
2022/02/05 13:55:25;;;;;;;5.28;1.75;;;12.50;99.90;;;;;;4978134;28;20085;-87
2022/02/05 13:58:11;;;;;;;6.05;1.52;;;12.30;99.90;;;;;;4978755;28;20274;-88
2022/02/05 14:00:37;;;;;;;8.00;1.45;;;12.10;99.90;;;;;;4994918;28;20042;-87
2022/02/05 14:03:27;;;;;;;10.10;2.53;;;11.70;99.90;;;;;;4994655;28;20057;-87
2022/02/05 14:06:08;;;;;;;9.45;1.83;;;11.60;99.90;;;;;;4961554;28;20042;-89
2022/02/05 14:08:36;;;;;;;8.57;2.00;;;11.70;99.90;;;;;;4977559;28;20539;-89
2022/02/05 14:11:04;;;;;;;10.02;2.00;;;11.60;99.90;;;;;;4977458;28;20049;-88
2022/02/05 14:13:31;;;;;;;6.65;1.42;;;11.10;99.90;;;;;;4976727;28;20146;-89
2022/02/05 14:16:00;;;;;;;7.53;1.98;;;10.80;99.90;;;;;;4977620;28;20026;-90
2022/02/05 14:18:29;;;;;;;9.63;2.13;;;10.50;99.90;;;;;;4976951;28;20038;-90
2022/02/05 14:21:01;;;;;;;9.00;1.88;;;10.20;99.90;;;;;;4993775;28;20495;-90
2022/02/05 14:23:32;;;;;;;10.15;2.42;;;9.90;99.90;;;;;;4976554;28;20101;-88
2022/02/05 14:28:46;;;;;;;7.60;1.85;;;9.60;99.90;;;;;;4994014;28;20065;-88
2022/02/05 14:31:18;;;;;;;6.30;2.00;;;9.40;99.90;;;;;;4976777;28;20035;-90
2022/02/05 14:36:20;;;;;;;5.97;2.03;;;9.20;99.90;;;;;;4995032;28;20049;-87
2022/02/05 14:41:31;;;;;;;7.35;1.98;;;9.10;99.90;;;;;;4994243;28;20058;-88
2022/02/05 14:43:57;;;;;;;8.30;1.90;;;9.00;99.90;;;;;;4994548;28;20022;-90
2022/02/05 14:46:23;;;;;;;9.93;2.22;;;9.00;99.90;;;;;;4980032;28;20081;-89
2022/02/05 14:48:48;;;;;;;9.27;2.55;;;9.10;99.90;;;;;;4978782;28;20035;-90
2022/02/05 14:51:14;;;;;;;10.13;2.72;;;9.00;99.90;;;;;;4978173;28;20477;-90
2022/02/05 14:53:40;;;;;;;9.45;2.50;;;9.00;99.90;;;;;;4979096;28;20038;-89
2022/02/05 14:56:05;;;;;;;6.70;2.47;;;8.90;99.90;;;;;;4979243;28;20030;-89
2022/02/05 14:58:31;;;;;;;8.18;2.53;;;8.80;99.90;;;;;;4977208;28;20093;-86
2022/02/05 15:00:57;;;;;;;8.75;2.05;;;8.70;99.90;;;;;;4975348;28;20074;-87
2022/02/05 15:03:22;;;;;;;9.18;2.38;;;8.60;99.90;;;;;;4976244;28;20090;-87
2022/02/05 15:05:50;;;;;;;9.73;2.05;;;8.50;99.90;;;;;;4975469;28;20081;-90
2022/02/05 15:08:16;;;;;;;9.52;2.75;;;8.60;99.90;;;;;;4975143;28;20038;-87
2022/02/05 15:10:41;;;;;;;5.72;2.20;;;8.50;99.90;;;;;;4975685;28;20035;-88
2022/02/05 15:13:07;;;;;;;9.60;2.08;;;8.50;99.90;;;;;;4976838;28;20042;-88
2022/02/05 15:15:33;;;;;;;9.75;2.70;;;8.50;99.90;;;;;;4974313;28;20641;-88
2022/02/05 15:17:59;;;;;;;6.78;1.73;;;8.50;99.90;;;;;;4974174;28;20038;-87
2022/02/05 15:20:25;;;;;;;11.57;2.47;;;8.50;99.90;;;;;;4973928;28;20077;-88
2022/02/05 15:22:52;;;;;;;11.52;1.85;;;8.50;99.90;;;;;;4973732;28;20050;-86
2022/02/05 15:25:18;;;;;;;8.77;2.20;;;8.50;99.90;;;;;;4974271;28;20104;-88
2022/02/05 15:27:44;;;;;;;9.40;2.20;;;8.40;99.90;;;;;;4976554;28;20030;-90
2022/02/05 15:30:11;;;;;;;9.65;2.78;;;8.50;99.90;;;;;;4977678;28;20035;-88
2022/02/05 15:32:37;;;;;;;10.05;2.40;;;8.40;99.90;;;;;;4980345;28;20070;-88
2022/02/05 15:35:11;;;;;;;12.90;3.28;;;8.40;99.90;;;;;;4982972;28;20031;-93
2022/02/05 15:43:56;;;;;;;7.82;2.20;;;8.20;99.90;;;;;;4979666;28;20035;-93
2022/02/05 15:46:24;;;;;;;8.93;1.92;;;8.10;99.90;;;;;;4959006;28;20034;-94
2022/02/05 15:48:51;;;;;;;10.25;2.35;;;8.10;99.90;;;;;;4961152;28;20070;-90
2022/02/05 15:51:25;;;;;;;9.02;2.75;;;8.10;99.90;;;;;;4961592;28;20496;-90
2022/02/05 15:53:56;;;;;;;15.75;3.03;;;8.00;99.90;;;;;;4961787;28;20037;-89
2022/02/05 15:56:37;;;;;;;11.82;2.50;;;8.00;99.90;;;;;;4980953;28;20038;-89
2022/02/05 15:59:06;;;;;;;8.80;2.65;;;8.00;99.90;;;;;;4965227;28;20546;-92
2022/02/05 16:01:33;;;;;;;10.20;2.20;;;8.00;99.90;;;;;;4965777;28;20202;-89
2022/02/05 16:04:01;;;;;;;10.63;2.83;;;8.10;99.90;;;;;;4966745;28;20043;-92
2022/02/05 16:06:29;;;;;;;10.82;2.28;;;8.10;99.90;;;;;;4965462;28;20039;-90
2022/02/05 16:08:57;;;;;;;10.48;3.05;;;8.10;99.90;;;;;;4966979;28;20046;-91
2022/02/05 16:11:25;;;;;;;12.02;2.20;;;8.10;99.90;;;;;;4976072;28;20041;-91
2022/02/05 16:13:51;;;;;;;10.93;2.38;;;8.20;99.90;;;;;;4982909;28;20030;-91
2022/02/05 16:16:19;;;;;;;11.98;3.70;;;8.10;99.90;;;;;;4981925;28;20034;-93
2022/02/05 16:18:56;;;;;;;12.00;3.13;;;8.10;99.90;;;;;;4982780;28;20061;-93
2022/02/05 16:21:23;;;;;;;7.45;2.42;;;8.10;99.90;;;;;;4985019;28;20385;-92